createdAt,value
2022-12-08T00:00:54.757Z,7.70
2022-12-08T00:01:57.223Z,6.00
2022-12-08T00:03:00.717Z,7.03
2022-12-08T00:04:04.904Z,7.68
2022-12-08T00:05:28.342Z,8.85
2022-12-08T00:06:51.083Z,8.02
2022-12-08T00:08:11.570Z,7.72
2022-12-08T00:09:23.918Z,6.88
2022-12-08T00:10:48.379Z,6.95
2022-12-08T00:11:49.263Z,8.25
2022-12-08T00:12:51.290Z,5.70
2022-12-08T00:13:54.300Z,6.05
2022-12-08T00:14:56.313Z,6.20
2022-12-08T00:16:01.274Z,5.70
2022-12-08T00:17:05.542Z,6.47
2022-12-08T00:18:07.659Z,6.07
2022-12-08T00:19:10.718Z,6.22
2022-12-08T00:20:14.186Z,6.97
2022-12-08T00:21:17.396Z,5.88
2022-12-08T00:22:20.504Z,6.63
2022-12-08T00:23:22.544Z,5.28
2022-12-08T00:24:30.368Z,6.00
2022-12-08T00:25:35.262Z,7.20
2022-12-08T00:26:38.697Z,6.72
2022-12-08T00:27:40.698Z,5.00
2022-12-08T00:28:43.703Z,5.22
2022-12-08T00:29:45.873Z,5.75
2022-12-08T00:30:48.945Z,5.88
2022-12-08T00:31:51.056Z,6.65
2022-12-08T00:32:54.125Z,6.70
2022-12-08T00:33:56.427Z,6.50
2022-12-08T00:34:59.421Z,7.38
2022-12-08T00:36:07.069Z,5.35
2022-12-08T00:37:10.095Z,5.90
2022-12-08T00:38:12.193Z,6.07
2022-12-08T00:39:16.611Z,6.38
2022-12-08T00:40:18.771Z,4.90
2022-12-08T00:41:44.245Z,4.45
2022-12-08T00:42:46.284Z,6.10
2022-12-08T00:43:49.309Z,5.90
2022-12-08T00:44:51.425Z,6.25
2022-12-08T00:45:54.498Z,8.50
2022-12-08T00:46:56.715Z,5.00
2022-12-08T00:47:59.814Z,6.85
2022-12-08T00:49:01.925Z,6.88
2022-12-08T00:50:05.778Z,4.72
2022-12-08T00:51:09.377Z,4.57
2022-12-08T00:52:12.921Z,4.93
2022-12-08T00:53:15.023Z,4.28
2022-12-08T00:54:18.516Z,3.35
2022-12-08T00:55:20.553Z,4.55
2022-12-08T00:56:23.819Z,3.35
2022-12-08T00:57:26.931Z,4.78
2022-12-08T00:58:28.966Z,4.57
2022-12-08T00:59:31.955Z,3.50
2022-12-08T01:00:33.976Z,2.75
2022-12-08T01:01:37.281Z,3.28
2022-12-08T01:02:40.394Z,5.38
2022-12-08T01:03:43.351Z,2.85
2022-12-08T01:04:46.532Z,2.88
2022-12-08T01:05:48.536Z,2.85
2022-12-08T01:06:52.918Z,2.40
2022-12-08T01:07:55.032Z,2.30
2022-12-08T01:08:58.186Z,2.30
2022-12-08T01:10:00.231Z,2.17
2022-12-08T01:11:04.689Z,3.45
2022-12-08T01:12:08.342Z,2.00
2022-12-08T01:13:11.338Z,1.83
2022-12-08T01:14:14.727Z,2.45
2022-12-08T01:15:16.762Z,1.95
2022-12-08T01:16:24.122Z,2.42
2022-12-08T01:17:26.193Z,1.85
2022-12-08T01:18:30.087Z,2.75
2022-12-08T01:19:32.193Z,2.13
2022-12-08T01:20:35.280Z,2.67
2022-12-08T01:21:37.471Z,2.35
2022-12-08T01:22:41.997Z,2.00
2022-12-08T01:23:44.450Z,2.08
2022-12-08T01:24:47.603Z,1.70
2022-12-08T01:25:49.593Z,4.80
2022-12-08T01:26:52.965Z,2.40
2022-12-08T01:27:54.996Z,4.40
2022-12-08T01:28:58.035Z,1.92
2022-12-08T01:30:01.186Z,2.70
2022-12-08T01:31:03.474Z,1.77
2022-12-08T01:32:06.684Z,1.80
2022-12-08T01:33:08.681Z,2.17
2022-12-08T01:34:12.900Z,3.92
2022-12-08T01:35:15.019Z,1.60
2022-12-08T01:36:21.520Z,1.70
2022-12-08T01:37:24.570Z,2.20
2022-12-08T01:38:27.961Z,2.90
2022-12-08T01:39:30.955Z,6.90
2022-12-08T01:40:33.030Z,2.53
2022-12-08T01:41:37.954Z,4.10
2022-12-08T01:42:40.986Z,2.72
2022-12-08T01:43:59.371Z,3.97
2022-12-08T01:45:04.720Z,7.45
2022-12-08T01:46:06.959Z,3.88
2022-12-08T01:47:10.501Z,5.18
2022-12-08T01:48:19.461Z,10.95
2022-12-08T01:49:27.731Z,5.20
2022-12-08T01:50:30.728Z,5.15
2022-12-08T01:51:41.641Z,4.07
2022-12-08T01:52:48.960Z,4.55
2022-12-08T01:53:52.750Z,7.80
2022-12-08T01:54:59.116Z,5.57
2022-12-08T01:56:06.955Z,3.83
2022-12-08T01:57:15.121Z,3.28
2022-12-08T01:58:21.161Z,7.40
2022-12-08T01:59:26.080Z,6.95
2022-12-08T02:00:28.187Z,4.15
2022-12-08T02:01:31.302Z,4.82
2022-12-08T02:02:41.821Z,5.93
2022-12-08T02:03:49.263Z,4.22
2022-12-08T02:04:51.338Z,3.15
2022-12-08T02:05:54.618Z,16.30
2022-12-08T02:06:57.552Z,4.10
2022-12-08T02:08:06.621Z,8.27
2022-12-08T02:09:10.652Z,4.53
2022-12-08T02:10:18.663Z,4.40
2022-12-08T02:11:21.110Z,4.07
2022-12-08T02:12:24.244Z,5.28
2022-12-08T02:13:26.447Z,7.97
2022-12-08T02:14:29.518Z,4.18
2022-12-08T02:15:39.563Z,5.95
2022-12-08T02:16:50.206Z,5.68
2022-12-08T02:18:02.304Z,3.85
2022-12-08T02:19:35.440Z,4.15
2022-12-08T02:20:52.845Z,3.63
2022-12-08T02:22:02.573Z,3.30
2022-12-08T02:23:16.165Z,5.88
2022-12-08T02:24:26.373Z,3.45
2022-12-08T02:25:40.399Z,3.58
2022-12-08T02:27:10.500Z,3.97
2022-12-08T02:28:40.337Z,9.52
2022-12-08T02:30:02.648Z,7.55
2022-12-08T02:31:20.257Z,4.00
2022-12-08T02:33:07.334Z,5.13
2022-12-08T02:34:30.172Z,5.68
2022-12-08T02:35:36.887Z,3.72
2022-12-08T02:36:49.636Z,3.70
2022-12-08T02:38:01.167Z,4.45
2022-12-08T02:39:11.220Z,8.30
2022-12-08T02:40:21.259Z,3.47
2022-12-08T02:41:37.236Z,4.15
2022-12-08T02:42:44.865Z,3.95
2022-12-08T02:43:52.213Z,4.90
2022-12-08T02:44:59.424Z,5.82
2022-12-08T02:46:06.431Z,3.85
2022-12-08T02:47:11.973Z,4.90
2022-12-08T02:48:16.404Z,9.13
2022-12-08T02:49:19.957Z,4.30
2022-12-08T02:50:23.144Z,15.93
2022-12-08T02:51:25.177Z,9.43
2022-12-08T02:52:41.625Z,3.25
2022-12-08T02:53:44.343Z,8.45
2022-12-08T02:54:52.397Z,4.55
2022-12-08T02:56:03.387Z,4.22
2022-12-08T02:57:23.857Z,11.68
2022-12-08T02:58:44.026Z,3.80
2022-12-08T03:00:05.683Z,7.65
2022-12-08T03:01:21.944Z,9.38
2022-12-08T03:02:38.208Z,3.75
2022-12-08T03:03:51.052Z,3.65
2022-12-08T03:05:04.775Z,3.78
2022-12-08T03:06:18.695Z,5.18
2022-12-08T03:07:26.072Z,3.72
2022-12-08T03:08:34.586Z,4.18
2022-12-08T03:09:43.357Z,3.83
2022-12-08T03:10:52.409Z,3.35
2022-12-08T03:12:04.038Z,5.05
2022-12-08T03:13:12.430Z,3.95
2022-12-08T03:14:17.781Z,3.38
2022-12-08T03:15:22.497Z,3.40
2022-12-08T03:16:26.594Z,3.40
2022-12-08T03:17:32.421Z,2.95
2022-12-08T03:18:38.823Z,3.90
2022-12-08T03:19:43.935Z,3.50
2022-12-08T03:20:50.001Z,5.00
2022-12-08T03:21:53.857Z,3.60
2022-12-08T03:22:59.906Z,3.33
2022-12-08T03:24:05.401Z,3.25
2022-12-08T03:25:10.937Z,3.22
2022-12-08T03:26:18.543Z,3.42
2022-12-08T03:27:25.067Z,4.95
2022-12-08T03:28:27.424Z,3.15
2022-12-08T03:29:31.164Z,3.72
2022-12-08T03:30:39.601Z,3.50
2022-12-08T03:31:50.027Z,2.83
2022-12-08T03:32:56.108Z,3.20
2022-12-08T03:34:00.356Z,2.60
2022-12-08T03:35:05.812Z,3.08
2022-12-08T03:36:12.244Z,3.22
2022-12-08T03:37:16.273Z,4.10
2022-12-08T03:38:19.676Z,5.47
2022-12-08T03:39:21.784Z,3.15
2022-12-08T03:40:25.018Z,3.00
2022-12-08T03:41:27.135Z,3.40
2022-12-08T03:42:30.261Z,3.88
2022-12-08T03:43:32.362Z,2.90
2022-12-08T03:44:35.360Z,3.25
2022-12-08T03:45:37.440Z,2.72
2022-12-08T03:46:40.692Z,2.85
2022-12-08T03:47:42.720Z,2.95
2022-12-08T03:48:45.757Z,3.22
2022-12-08T03:49:48.764Z,4.10
2022-12-08T03:50:50.813Z,3.00
2022-12-08T03:51:55.287Z,3.03
2022-12-08T03:52:57.397Z,2.70
2022-12-08T03:54:00.421Z,2.75
2022-12-08T03:55:03.566Z,2.92
2022-12-08T03:56:13.851Z,7.32
2022-12-08T03:57:16.954Z,2.47
2022-12-08T03:58:18.962Z,2.47
2022-12-08T03:59:22.213Z,3.17
2022-12-08T04:00:24.306Z,2.60
2022-12-08T04:01:27.560Z,2.92
2022-12-08T04:02:29.659Z,2.47
2022-12-08T04:03:32.768Z,2.38
2022-12-08T04:04:35.759Z,2.55
2022-12-08T04:05:37.822Z,5.95
2022-12-08T04:06:40.827Z,2.75
2022-12-08T04:07:44.305Z,2.55
2022-12-08T04:08:47.973Z,2.75
2022-12-08T04:09:49.989Z,4.60
2022-12-08T04:10:53.027Z,4.03
2022-12-08T04:11:56.081Z,2.40
2022-12-08T04:12:58.129Z,2.70
2022-12-08T04:14:01.140Z,3.30
2022-12-08T04:15:03.499Z,3.33
2022-12-08T04:16:07.428Z,3.00
2022-12-08T04:17:10.524Z,2.92
2022-12-08T04:18:12.674Z,3.13
2022-12-08T04:19:15.776Z,2.80
2022-12-08T04:20:17.824Z,3.00
2022-12-08T04:21:21.104Z,2.90
2022-12-08T04:22:23.524Z,2.67
2022-12-08T04:23:28.188Z,2.83
2022-12-08T04:24:30.228Z,2.63
2022-12-08T04:25:33.526Z,3.03
2022-12-08T04:26:35.594Z,3.50
2022-12-08T04:27:38.629Z,2.72
2022-12-08T04:28:40.777Z,4.82
2022-12-08T04:29:43.800Z,2.78
2022-12-08T04:30:48.060Z,3.00
2022-12-08T04:31:51.276Z,2.90
2022-12-08T04:32:53.354Z,2.78
2022-12-08T04:33:56.407Z,2.85
2022-12-08T04:34:58.423Z,2.50
2022-12-08T04:36:01.473Z,2.60
2022-12-08T04:37:03.593Z,2.75
2022-12-08T04:38:06.665Z,2.58
2022-12-08T04:39:11.042Z,6.13
2022-12-08T04:40:14.148Z,2.50
2022-12-08T04:41:17.186Z,2.80
2022-12-08T04:42:19.208Z,2.95
2022-12-08T04:43:22.374Z,3.03
2022-12-08T04:44:25.395Z,2.97
2022-12-08T04:45:27.549Z,2.45
2022-12-08T04:46:30.650Z,2.65
2022-12-08T04:47:32.909Z,3.78
2022-12-08T04:48:37.511Z,2.60
2022-12-08T04:49:39.554Z,2.63
2022-12-08T04:50:44.166Z,2.47
2022-12-08T04:51:46.459Z,5.00
2022-12-08T04:52:49.461Z,3.15
2022-12-08T04:53:51.617Z,2.83
2022-12-08T04:54:56.023Z,2.92
2022-12-08T04:55:59.032Z,2.47
2022-12-08T04:57:01.076Z,3.72
2022-12-08T04:58:04.084Z,2.60
2022-12-08T04:59:07.150Z,2.50
2022-12-08T05:00:10.039Z,2.55
2022-12-08T05:01:13.796Z,2.40
2022-12-08T05:02:15.957Z,3.67
2022-12-08T05:03:23.838Z,2.60
2022-12-08T05:04:30.333Z,3.20
2022-12-08T05:05:33.365Z,2.30
2022-12-08T05:06:36.438Z,2.35
2022-12-08T05:07:38.543Z,6.25
2022-12-08T05:08:41.937Z,3.03
2022-12-08T05:09:44.837Z,2.67
2022-12-08T05:10:49.158Z,2.60
2022-12-08T05:11:51.272Z,3.00
2022-12-08T05:12:54.425Z,2.83
2022-12-08T05:13:57.465Z,2.30
2022-12-08T05:14:59.530Z,2.28
2022-12-08T05:16:07.395Z,2.70
2022-12-08T05:17:09.865Z,2.53
2022-12-08T05:18:13.364Z,2.92
2022-12-08T05:19:16.232Z,2.72
2022-12-08T05:20:19.393Z,2.15
2022-12-08T05:21:21.467Z,2.35
2022-12-08T05:22:24.484Z,2.55
2022-12-08T05:23:26.809Z,2.95
2022-12-08T05:24:29.825Z,4.70
2022-12-08T05:25:31.861Z,3.25
2022-12-08T05:26:36.548Z,2.80
2022-12-08T05:27:38.599Z,4.47
2022-12-08T05:28:43.080Z,2.75
2022-12-08T05:29:45.544Z,3.17
2022-12-08T05:30:48.583Z,3.00
2022-12-08T05:31:50.795Z,2.33
2022-12-08T05:32:53.919Z,2.67
2022-12-08T05:34:00.962Z,2.50
2022-12-08T05:35:06.467Z,2.40
2022-12-08T05:36:09.620Z,2.60
2022-12-08T05:37:12.641Z,2.92
2022-12-08T05:38:15.672Z,2.70
2022-12-08T05:39:17.708Z,2.70
2022-12-08T05:40:20.723Z,2.28
2022-12-08T05:41:23.736Z,2.05
2022-12-08T05:42:27.127Z,2.30
2022-12-08T05:43:30.223Z,2.40
2022-12-08T05:44:32.296Z,2.22
2022-12-08T05:45:35.859Z,2.10
2022-12-08T05:46:38.046Z,2.00
2022-12-08T05:47:41.044Z,2.00
2022-12-08T05:48:43.190Z,2.42
2022-12-08T05:49:46.409Z,2.30
2022-12-08T05:50:50.977Z,2.40
2022-12-08T05:51:54.033Z,2.78
2022-12-08T05:52:56.133Z,2.47
2022-12-08T05:53:59.385Z,2.83
2022-12-08T05:55:02.332Z,2.15
2022-12-08T05:56:05.892Z,3.90
2022-12-08T05:57:08.155Z,2.40
2022-12-08T05:58:15.287Z,2.42
2022-12-08T05:59:17.327Z,2.13
2022-12-08T06:00:21.956Z,2.50
2022-12-08T06:01:27.447Z,2.88
2022-12-08T06:02:30.597Z,2.67
2022-12-08T06:03:33.133Z,2.80
2022-12-08T06:04:36.752Z,3.33
2022-12-08T06:05:40.094Z,2.53
2022-12-08T06:06:43.143Z,3.25
2022-12-08T06:07:45.379Z,3.10
2022-12-08T06:08:48.578Z,2.13
2022-12-08T06:09:50.629Z,2.65
2022-12-08T06:10:53.654Z,2.63
2022-12-08T06:11:55.666Z,2.92
2022-12-08T06:12:58.703Z,2.50
2022-12-08T06:14:03.139Z,2.30
2022-12-08T06:15:06.852Z,3.97
2022-12-08T06:16:08.983Z,2.40
2022-12-08T06:17:12.010Z,3.08
2022-12-08T06:18:14.059Z,2.97
2022-12-08T06:19:17.486Z,3.25
2022-12-08T06:20:19.586Z,2.53
2022-12-08T06:21:22.742Z,2.58
2022-12-08T06:22:24.788Z,3.78
2022-12-08T06:23:27.844Z,2.60
2022-12-08T06:24:31.014Z,2.38
2022-12-08T06:25:33.055Z,3.30
2022-12-08T06:26:36.842Z,2.63
2022-12-08T06:27:38.886Z,2.35
2022-12-08T06:28:42.622Z,2.78
2022-12-08T06:29:47.033Z,2.65
2022-12-08T06:30:49.022Z,2.30
2022-12-08T06:31:52.742Z,2.17
2022-12-08T06:32:54.857Z,3.30
2022-12-08T06:33:57.993Z,2.58
2022-12-08T06:35:00.206Z,2.75
2022-12-08T06:36:03.322Z,2.95
2022-12-08T06:37:05.400Z,2.30
2022-12-08T06:38:08.406Z,3.60
2022-12-08T06:39:11.653Z,4.32
2022-12-08T06:40:14.441Z,2.28
2022-12-08T06:41:18.478Z,3.30
2022-12-08T06:42:50.581Z,2.90
2022-12-08T06:43:56.383Z,2.42
2022-12-08T06:45:00.533Z,2.45
2022-12-08T06:46:05.945Z,3.13
2022-12-08T06:47:08.134Z,2.47
2022-12-08T06:48:11.125Z,2.88
2022-12-08T06:49:13.199Z,5.22
2022-12-08T06:50:16.222Z,2.78
2022-12-08T06:51:22.016Z,4.45
2022-12-08T06:52:24.111Z,3.30
2022-12-08T06:53:27.111Z,3.13
2022-12-08T06:54:30.358Z,2.80
2022-12-08T06:55:57.817Z,3.10
2022-12-08T06:56:55.752Z,4.70
2022-12-08T06:57:57.788Z,3.03
2022-12-08T06:59:00.828Z,2.97
2022-12-08T07:00:05.634Z,4.93
2022-12-08T07:01:10.623Z,2.50
2022-12-08T07:02:12.881Z,5.80
2022-12-08T07:03:15.958Z,5.05
2022-12-08T07:04:18.132Z,3.28
2022-12-08T07:05:21.120Z,2.95
2022-12-08T07:06:25.854Z,2.97
2022-12-08T07:07:27.874Z,2.85
2022-12-08T07:08:31.076Z,2.80
2022-12-08T07:09:34.187Z,3.30
2022-12-08T07:10:36.382Z,2.70
2022-12-08T07:11:39.488Z,2.63
2022-12-08T07:12:41.502Z,4.53
2022-12-08T07:13:44.533Z,3.20
2022-12-08T07:14:46.541Z,3.40
2022-12-08T07:15:50.956Z,3.03
2022-12-08T07:16:54.437Z,3.22
2022-12-08T07:18:00.067Z,4.40
2022-12-08T07:19:03.760Z,3.20
2022-12-08T07:20:07.714Z,3.10
2022-12-08T07:21:13.129Z,3.65
2022-12-08T07:22:16.150Z,4.70
2022-12-08T07:23:19.142Z,3.13
2022-12-08T07:24:21.529Z,4.25
2022-12-08T07:25:24.591Z,3.90
2022-12-08T07:26:27.018Z,3.10
2022-12-08T07:27:30.130Z,2.92
2022-12-08T07:28:32.691Z,5.00
2022-12-08T07:29:35.742Z,3.65
2022-12-08T07:30:39.642Z,4.10
2022-12-08T07:31:44.143Z,5.25
2022-12-08T07:32:46.343Z,7.05
2022-12-08T07:33:50.224Z,4.07
2022-12-08T07:34:53.514Z,3.55
2022-12-08T07:35:56.143Z,3.55
2022-12-08T07:36:59.173Z,4.78
2022-12-08T07:38:02.213Z,3.38
2022-12-08T07:39:04.880Z,3.65
2022-12-08T07:40:09.400Z,2.60
2022-12-08T07:41:16.251Z,6.82
2022-12-08T07:42:18.269Z,4.82
2022-12-08T07:43:23.844Z,4.05
2022-12-08T07:44:26.876Z,4.22
2022-12-08T07:45:31.729Z,3.40
2022-12-08T07:46:35.169Z,3.20
2022-12-08T07:47:38.654Z,3.20
2022-12-08T07:48:41.821Z,3.67
2022-12-08T07:49:44.897Z,3.30
2022-12-08T07:50:47.517Z,4.55
2022-12-08T07:51:50.606Z,4.07
2022-12-08T07:52:53.624Z,3.20
2022-12-08T07:53:56.629Z,2.97
2022-12-08T07:54:58.638Z,3.60
2022-12-08T07:56:01.819Z,4.00
2022-12-08T07:57:06.049Z,4.47
2022-12-08T07:58:08.806Z,3.38
2022-12-08T07:59:11.887Z,3.45
2022-12-08T08:00:16.535Z,5.38
2022-12-08T08:01:21.159Z,4.75
2022-12-08T08:02:25.906Z,3.13
2022-12-08T08:03:29.886Z,3.28
2022-12-08T08:04:33.010Z,2.78
2022-12-08T08:05:36.134Z,4.00
2022-12-08T08:06:39.213Z,5.28
2022-12-08T08:07:43.135Z,3.70
2022-12-08T08:08:46.344Z,4.05
2022-12-08T08:09:48.411Z,3.83
2022-12-08T08:10:51.419Z,3.63
2022-12-08T08:12:22.156Z,2.47
2022-12-08T08:13:16.840Z,6.20
2022-12-08T08:14:21.024Z,2.60
2022-12-08T08:15:24.128Z,2.72
2022-12-08T08:16:26.371Z,3.17
2022-12-08T08:17:29.978Z,2.85
2022-12-08T08:18:34.248Z,7.30
2022-12-08T08:19:37.316Z,2.75
2022-12-08T08:20:40.796Z,2.58
2022-12-08T08:21:45.895Z,2.80
2022-12-08T08:22:49.918Z,3.10
2022-12-08T08:23:52.929Z,2.67
2022-12-08T08:24:55.027Z,3.03
2022-12-08T08:26:00.639Z,2.65
2022-12-08T08:27:04.145Z,2.85
2022-12-08T08:28:07.162Z,2.53
2022-12-08T08:29:10.202Z,2.50
2022-12-08T08:30:19.611Z,2.63
2022-12-08T08:31:26.937Z,7.40
2022-12-08T08:32:32.061Z,7.80
2022-12-08T08:33:36.430Z,6.88
2022-12-08T08:34:38.921Z,4.88
2022-12-08T08:35:42.362Z,5.03
2022-12-08T08:36:44.572Z,8.85
2022-12-08T08:37:49.372Z,5.93
2022-12-08T08:38:53.172Z,4.18
2022-12-08T08:39:56.444Z,4.95
2022-12-08T08:40:59.426Z,8.45
2022-12-08T08:42:02.562Z,4.97
2022-12-08T08:43:05.983Z,4.45
2022-12-08T08:44:09.073Z,4.75
2022-12-08T08:45:11.771Z,4.68
2022-12-08T08:46:14.841Z,4.40
2022-12-08T08:47:16.903Z,3.83
2022-12-08T08:48:19.882Z,3.60
2022-12-08T08:49:24.358Z,2.58
2022-12-08T08:50:32.884Z,2.70
2022-12-08T08:51:39.206Z,3.15
2022-12-08T08:52:41.223Z,3.05
2022-12-08T08:53:44.514Z,4.85
2022-12-08T08:54:46.617Z,3.28
2022-12-08T08:55:50.176Z,3.22
2022-12-08T08:56:53.552Z,3.22
2022-12-08T08:57:55.594Z,3.22
2022-12-08T08:58:58.832Z,2.88
2022-12-08T09:00:02.135Z,3.38
2022-12-08T09:01:05.542Z,3.30
2022-12-08T09:02:11.151Z,3.30
2022-12-08T09:03:14.206Z,2.97
2022-12-08T09:04:17.289Z,5.13
2022-12-08T09:05:21.827Z,4.13
2022-12-08T09:06:25.933Z,3.30
2022-12-08T09:07:28.052Z,3.30
2022-12-08T09:08:31.301Z,2.85
2022-12-08T09:09:34.432Z,3.15
2022-12-08T09:10:36.515Z,3.80
2022-12-08T09:11:39.624Z,3.70
2022-12-08T09:12:42.667Z,3.83
2022-12-08T09:13:48.220Z,2.88
2022-12-08T09:14:50.234Z,3.00
2022-12-08T09:15:53.333Z,3.80
2022-12-08T09:16:56.394Z,2.63
2022-12-08T09:17:58.434Z,2.80
2022-12-08T09:19:02.358Z,3.35
2022-12-08T09:20:05.744Z,3.08
2022-12-08T09:21:15.038Z,3.72
2022-12-08T09:22:18.067Z,3.17
2022-12-08T09:23:20.150Z,3.08
2022-12-08T09:24:23.187Z,2.67
2022-12-08T09:25:25.377Z,2.58
2022-12-08T09:26:29.240Z,3.08
2022-12-08T09:27:31.329Z,2.72
2022-12-08T09:28:35.169Z,5.18
2022-12-08T09:29:37.218Z,3.23
2022-12-08T09:30:40.308Z,3.03
2022-12-08T09:31:42.855Z,3.40
2022-12-08T09:32:46.008Z,3.20
2022-12-08T09:33:51.494Z,3.27
2022-12-08T09:34:54.223Z,3.20
2022-12-08T09:35:57.692Z,2.63
2022-12-08T09:37:02.085Z,3.67
2022-12-08T09:38:04.194Z,3.20
2022-12-08T09:39:07.613Z,5.63
2022-12-08T09:40:16.458Z,5.57
2022-12-08T09:41:29.327Z,3.47
2022-12-08T09:42:42.539Z,3.00
2022-12-08T09:44:00.883Z,3.73
2022-12-08T09:45:07.186Z,6.53
2022-12-08T09:46:11.745Z,3.60
2022-12-08T09:47:19.867Z,3.00
2022-12-08T09:48:28.577Z,10.50
2022-12-08T09:49:37.804Z,10.40
2022-12-08T09:50:46.508Z,8.80
2022-12-08T09:51:48.582Z,8.57
2022-12-08T09:53:01.393Z,8.23
2022-12-08T09:54:08.674Z,7.90
2022-12-08T09:55:20.108Z,8.13
2022-12-08T09:56:25.211Z,8.97
2022-12-08T09:57:30.288Z,9.03
2022-12-08T09:58:44.258Z,11.00
2022-12-08T09:59:53.731Z,10.83
2022-12-08T10:00:56.095Z,8.63
2022-12-08T10:01:59.292Z,13.90
2022-12-08T10:03:02.387Z,8.03
2022-12-08T10:04:24.997Z,8.40
2022-12-08T10:05:28.970Z,9.57
2022-12-08T10:06:36.958Z,8.80
2022-12-08T10:07:46.302Z,9.00
2022-12-08T10:09:03.662Z,10.03
2022-12-08T10:10:15.086Z,9.90
2022-12-08T10:11:25.335Z,9.43
2022-12-08T10:12:35.596Z,9.10
2022-12-08T10:13:46.305Z,10.57
2022-12-08T10:14:57.864Z,9.53
2022-12-08T10:16:19.136Z,11.30
2022-12-08T10:17:27.646Z,12.07
2022-12-08T10:18:32.255Z,9.30
2022-12-08T10:19:36.127Z,14.25
2022-12-08T10:20:41.945Z,14.73
2022-12-08T10:21:45.211Z,12.10
2022-12-08T10:22:51.949Z,12.47
2022-12-08T10:24:01.000Z,11.63
2022-12-08T10:25:11.192Z,13.03
2022-12-08T10:26:15.149Z,11.20
2022-12-08T10:27:18.159Z,10.03
2022-12-08T10:28:21.269Z,13.98
2022-12-08T10:29:24.277Z,12.97
2022-12-08T10:30:26.546Z,12.03
2022-12-08T10:31:31.850Z,13.88
2022-12-08T10:32:36.396Z,17.20
2022-12-08T10:33:38.409Z,14.67
2022-12-08T10:34:59.773Z,23.07
2022-12-08T10:36:03.201Z,17.23
2022-12-08T10:37:10.897Z,14.35
2022-12-08T10:38:22.177Z,13.45
2022-12-08T10:39:33.460Z,12.63
2022-12-08T10:40:43.840Z,16.25
2022-12-08T10:41:48.507Z,13.85
2022-12-08T10:42:54.051Z,13.52
2022-12-08T10:44:02.134Z,28.95
2022-12-08T10:45:21.326Z,13.30
2022-12-08T10:46:26.766Z,19.48
2022-12-08T10:47:30.439Z,16.75
2022-12-08T10:48:34.816Z,17.27
2022-12-08T10:49:38.674Z,12.45
2022-12-08T10:50:43.749Z,17.48
2022-12-08T10:51:46.777Z,14.40
2022-12-08T10:52:55.964Z,14.40
2022-12-08T10:53:59.318Z,12.32
2022-12-08T10:55:02.800Z,9.32
2022-12-08T10:56:16.488Z,10.23
2022-12-08T10:57:23.541Z,11.80
2022-12-08T10:58:33.735Z,12.13
2022-12-08T10:59:36.767Z,13.52
2022-12-08T11:00:40.926Z,10.07
2022-12-08T11:01:47.780Z,11.65
2022-12-08T11:02:58.994Z,13.45
2022-12-08T11:04:04.529Z,13.27
2022-12-08T11:05:08.251Z,13.18
2022-12-08T11:06:15.144Z,13.30
2022-12-08T11:07:23.634Z,12.63
2022-12-08T11:08:27.635Z,12.68
2022-12-08T11:09:40.857Z,13.60
2022-12-08T11:10:46.714Z,13.70
2022-12-08T11:11:51.501Z,14.70
2022-12-08T11:12:55.211Z,15.45
2022-12-08T11:13:58.460Z,12.80
2022-12-08T11:15:03.588Z,13.23
2022-12-08T11:16:07.174Z,13.50
2022-12-08T11:17:13.866Z,19.92
2022-12-08T11:18:27.148Z,17.95
2022-12-08T11:19:30.208Z,13.63
2022-12-08T11:20:40.250Z,14.98
2022-12-08T11:21:43.613Z,16.70
2022-12-08T11:22:50.993Z,18.75
2022-12-08T11:23:53.965Z,14.38
2022-12-08T11:25:11.463Z,15.52
2022-12-08T11:26:21.996Z,14.00
2022-12-08T11:27:24.052Z,13.68
2022-12-08T11:28:27.221Z,14.95
2022-12-08T11:29:31.788Z,17.70
2022-12-08T11:30:39.797Z,16.98
2022-12-08T11:31:49.772Z,18.85
2022-12-08T11:32:58.010Z,18.45
2022-12-08T11:34:02.870Z,16.38
2022-12-08T11:35:07.620Z,17.30
2022-12-08T11:36:14.392Z,14.48
2022-12-08T11:37:21.822Z,15.55
2022-12-08T11:38:28.352Z,15.05
2022-12-08T11:39:35.438Z,15.25
2022-12-08T11:40:43.383Z,20.33
2022-12-08T11:41:48.368Z,15.73
2022-12-08T11:42:56.328Z,19.48
2022-12-08T11:44:05.660Z,16.75
2022-12-08T11:45:13.786Z,15.98
2022-12-08T11:46:21.962Z,17.70
2022-12-08T11:47:27.856Z,16.92
2022-12-08T11:48:36.311Z,16.27
2022-12-08T11:49:41.852Z,17.38
2022-12-08T11:50:48.177Z,20.58
2022-12-08T11:51:55.765Z,17.17
2022-12-08T11:53:00.829Z,19.17
2022-12-08T11:54:14.627Z,16.73
2022-12-08T11:55:36.951Z,17.13
2022-12-08T11:56:45.800Z,14.90
2022-12-08T11:57:51.134Z,15.65
2022-12-08T11:58:57.355Z,15.05
2022-12-08T12:00:02.775Z,19.50
2022-12-08T12:01:21.091Z,18.13
2022-12-08T12:02:27.579Z,16.10
2022-12-08T12:03:35.751Z,19.55
2022-12-08T12:04:43.730Z,21.45
2022-12-08T12:06:12.918Z,17.45
2022-12-08T12:07:52.858Z,19.35
2022-12-08T12:09:07.195Z,18.40
2022-12-08T12:10:48.890Z,15.40
2022-12-08T12:12:16.566Z,16.23
2022-12-08T12:13:40.186Z,14.40
2022-12-08T12:15:31.356Z,15.93
2022-12-08T12:16:51.478Z,17.02
2022-12-08T12:17:58.885Z,15.68
2022-12-08T12:19:05.576Z,20.02
2022-12-08T12:20:15.949Z,16.77
2022-12-08T12:21:22.791Z,14.30
2022-12-08T12:22:28.954Z,17.98
2022-12-08T12:23:38.129Z,16.48
2022-12-08T12:24:43.046Z,16.20
2022-12-08T12:25:51.963Z,15.63
2022-12-08T12:27:02.754Z,16.17
2022-12-08T12:28:07.772Z,16.35
2022-12-08T12:29:19.705Z,16.38
2022-12-08T12:30:24.777Z,18.77
2022-12-08T12:31:30.922Z,13.60
2022-12-08T12:32:44.817Z,13.23
2022-12-08T12:33:48.957Z,15.57
2022-12-08T12:34:54.226Z,13.10
2022-12-08T12:35:59.368Z,14.30
2022-12-08T12:37:10.181Z,14.60
2022-12-08T12:38:39.393Z,14.40
2022-12-08T12:39:51.255Z,18.83
2022-12-08T12:40:59.742Z,16.83
2022-12-08T12:42:04.244Z,16.35
2022-12-08T12:43:23.941Z,13.27
2022-12-08T12:44:43.210Z,15.80
2022-12-08T12:45:46.563Z,15.15
2022-12-08T12:47:01.416Z,16.17
2022-12-08T12:48:24.771Z,13.75
2022-12-08T12:49:50.928Z,13.30
2022-12-08T12:50:55.164Z,15.52
2022-12-08T12:51:57.252Z,12.48
2022-12-08T12:53:01.348Z,15.57
2022-12-08T12:54:21.886Z,17.25
2022-12-08T12:55:54.702Z,16.95
2022-12-08T12:57:15.698Z,14.47
2022-12-08T12:58:48.756Z,17.80
2022-12-08T13:00:08.387Z,12.48
2022-12-08T13:01:49.687Z,17.95
2022-12-08T13:02:54.022Z,16.83
2022-12-08T13:04:05.837Z,20.52
2022-12-08T13:05:15.821Z,17.75
2022-12-08T13:06:24.857Z,16.55
2022-12-08T13:07:31.000Z,15.13
2022-12-08T13:08:34.669Z,18.43
2022-12-08T13:09:41.485Z,15.73
2022-12-08T13:10:59.146Z,15.05
2022-12-08T13:12:10.454Z,14.37
2022-12-08T13:13:19.952Z,17.88
2022-12-08T13:14:34.546Z,17.10
2022-12-08T13:15:40.800Z,16.50
2022-12-08T13:16:42.933Z,15.63
2022-12-08T13:17:47.971Z,18.53
2022-12-08T13:18:52.410Z,15.80
2022-12-08T13:19:58.272Z,15.77
2022-12-08T13:21:05.696Z,17.10
2022-12-08T13:22:46.224Z,15.30
2022-12-08T13:23:50.852Z,19.60
2022-12-08T13:24:53.669Z,16.07
2022-12-08T13:26:27.490Z,15.90
2022-12-08T13:27:35.397Z,13.93
2022-12-08T13:29:20.426Z,14.50
2022-12-08T13:30:43.764Z,14.77
2022-12-08T13:31:51.273Z,13.23
2022-12-08T13:34:25.524Z,14.87
2022-12-08T13:35:28.317Z,19.20
2022-12-08T13:36:36.262Z,13.90
2022-12-08T13:37:54.596Z,16.50
2022-12-08T13:39:00.698Z,13.90
2022-12-08T13:40:11.633Z,11.63
2022-12-08T13:41:18.234Z,13.70
2022-12-08T13:42:25.955Z,12.30
2022-12-08T13:43:48.446Z,12.47
2022-12-08T13:45:24.257Z,14.43
2022-12-08T13:53:56.188Z,9.53
2022-12-08T13:57:10.230Z,8.40
2022-12-08T13:58:25.232Z,9.43
2022-12-08T13:59:31.519Z,8.20
2022-12-08T14:00:33.672Z,15.10
2022-12-08T14:01:45.725Z,11.37
2022-12-08T14:02:50.745Z,12.43
2022-12-08T14:05:40.567Z,10.63
2022-12-08T14:06:50.437Z,10.03
2022-12-08T14:07:56.107Z,13.10
2022-12-08T14:09:09.994Z,12.47
2022-12-08T14:10:19.712Z,13.60
2022-12-08T14:11:34.725Z,15.80
2022-12-08T14:12:38.289Z,14.00
2022-12-08T14:13:40.658Z,15.17
2022-12-08T14:15:02.639Z,20.47
2022-12-08T14:16:07.553Z,17.07
2022-12-08T14:17:13.540Z,13.63
2022-12-08T14:18:26.120Z,15.37
2022-12-08T14:19:29.990Z,15.73
2022-12-08T14:20:51.989Z,15.70
2022-12-08T14:21:59.677Z,17.73
2022-12-08T14:23:08.120Z,15.80
2022-12-08T14:24:12.360Z,15.07
2022-12-08T14:25:17.432Z,20.10
2022-12-08T14:26:19.508Z,14.73
2022-12-08T14:27:24.692Z,18.40
2022-12-08T14:28:28.145Z,22.23
2022-12-08T14:29:43.317Z,17.77
2022-12-08T14:30:49.355Z,10.87
2022-12-08T14:31:54.611Z,9.77
2022-12-08T14:33:00.885Z,9.27
2022-12-08T14:34:02.936Z,8.33
2022-12-08T14:35:16.678Z,6.90
2022-12-08T14:36:20.918Z,6.37
2022-12-08T14:37:25.429Z,5.37
2022-12-08T14:38:29.287Z,6.73
2022-12-08T14:39:31.421Z,5.67
2022-12-08T14:40:36.217Z,7.10
2022-12-08T14:41:39.364Z,7.13
2022-12-08T14:42:47.131Z,4.87
2022-12-08T14:43:59.814Z,6.93
2022-12-08T14:45:05.496Z,4.90
2022-12-08T14:46:21.301Z,6.33
2022-12-08T14:47:29.371Z,5.20
2022-12-08T14:48:44.556Z,7.37